createdAt,value
2019-01-29T00:01:53.367Z,15.07
2019-01-29T00:04:24.659Z,20.17
2019-01-29T00:06:54.623Z,17.37
2019-01-29T00:09:24.661Z,19.17
2019-01-29T00:11:54.859Z,19.50
2019-01-29T00:14:27.649Z,15.27
2019-01-29T00:16:58.657Z,19.07
2019-01-29T00:19:29.964Z,14.53
2019-01-29T00:21:59.929Z,13.63
2019-01-29T00:24:30.277Z,16.03
2019-01-29T00:27:00.537Z,14.93
2019-01-29T00:29:30.791Z,16.00
2019-01-29T00:32:00.919Z,15.47
2019-01-29T00:34:30.973Z,18.47
2019-01-29T00:37:02.103Z,18.33
2019-01-29T00:39:32.181Z,17.30
2019-01-29T00:42:02.172Z,17.33
2019-01-29T00:44:32.534Z,17.33
2019-01-29T00:47:02.654Z,18.27
2019-01-29T00:49:34.089Z,18.30
2019-01-29T00:52:03.914Z,17.43
2019-01-29T00:54:34.711Z,17.27
2019-01-29T00:57:06.361Z,15.97
2019-01-29T00:59:37.556Z,14.83
2019-01-29T01:02:08.193Z,16.23
2019-01-29T01:04:38.415Z,13.40
2019-01-29T01:07:08.024Z,17.77
2019-01-29T01:09:38.012Z,15.53
2019-01-29T01:12:08.232Z,9.30
2019-01-29T01:14:38.148Z,6.10
2019-01-29T01:17:08.079Z,7.33
2019-01-29T01:19:38.035Z,11.43
2019-01-29T01:22:08.932Z,14.67
2019-01-29T01:24:40.427Z,12.70
2019-01-29T01:27:09.087Z,13.67
2019-01-29T01:29:39.697Z,16.97
2019-01-29T01:32:09.304Z,15.13
2019-01-29T01:34:40.489Z,17.10
2019-01-29T01:37:11.303Z,16.50
2019-01-29T01:39:41.258Z,15.87
2019-01-29T01:42:13.290Z,16.97
2019-01-29T01:44:43.258Z,16.40
2019-01-29T01:47:14.944Z,14.90
2019-01-29T01:49:45.084Z,17.07
2019-01-29T01:52:15.013Z,14.83
2019-01-29T01:54:47.104Z,20.60
2019-01-29T01:57:17.757Z,15.27
2019-01-29T01:59:48.636Z,19.60
2019-01-29T02:02:18.094Z,16.90
2019-01-29T02:04:49.231Z,17.23
2019-01-29T02:07:20.736Z,14.47
2019-01-29T02:09:50.429Z,8.83
2019-01-29T02:12:19.713Z,9.33
2019-01-29T02:14:49.412Z,7.33
2019-01-29T02:17:20.304Z,10.13
2019-01-29T02:19:50.825Z,13.67
2019-01-29T02:22:21.046Z,23.77
2019-01-29T02:24:53.249Z,25.57
2019-01-29T02:27:23.525Z,23.23
2019-01-29T02:29:54.709Z,15.10
2019-01-29T02:32:25.226Z,18.47
2019-01-29T02:34:56.481Z,13.40
2019-01-29T02:37:26.602Z,10.90
2019-01-29T02:39:57.742Z,11.43
2019-01-29T02:42:29.248Z,15.80
2019-01-29T02:44:58.748Z,11.47
2019-01-29T02:47:28.290Z,13.30
2019-01-29T02:50:00.969Z,14.60
2019-01-29T02:52:31.337Z,18.23
2019-01-29T02:55:02.389Z,13.37
2019-01-29T02:57:32.566Z,17.23
2019-01-29T03:00:03.168Z,18.77
2019-01-29T03:02:33.599Z,21.27
2019-01-29T03:05:04.136Z,20.60
2019-01-29T03:07:35.409Z,17.43
2019-01-29T03:10:10.737Z,17.90
2019-01-29T03:12:41.666Z,13.67
2019-01-29T03:15:17.123Z,15.67
2019-01-29T03:17:46.467Z,14.00
2019-01-29T03:20:16.962Z,10.80
2019-01-29T03:22:47.578Z,13.07
2019-01-29T03:25:18.571Z,12.10
2019-01-29T03:27:49.513Z,11.70
2019-01-29T03:30:19.588Z,15.13
2019-01-29T03:32:48.823Z,14.60
2019-01-29T03:35:18.743Z,12.73
2019-01-29T03:37:48.284Z,12.07
2019-01-29T03:40:22.951Z,13.60
2019-01-29T03:42:54.109Z,11.90
2019-01-29T03:45:23.823Z,13.07
2019-01-29T03:47:54.590Z,14.73
2019-01-29T03:50:24.708Z,11.03
2019-01-29T03:52:56.482Z,15.77
2019-01-29T03:55:25.835Z,12.80
2019-01-29T03:57:55.452Z,16.13
2019-01-29T04:00:27.521Z,16.20
2019-01-29T04:02:58.230Z,16.27
2019-01-29T04:05:28.985Z,17.57
2019-01-29T04:07:59.046Z,14.00
2019-01-29T04:10:29.092Z,14.87
2019-01-29T04:13:00.301Z,17.47
2019-01-29T04:15:30.873Z,12.37
2019-01-29T04:18:02.486Z,12.83
2019-01-29T04:20:33.127Z,18.33
2019-01-29T04:23:04.712Z,14.70
2019-01-29T04:25:36.009Z,15.67
2019-01-29T04:28:06.428Z,13.93
2019-01-29T04:30:36.265Z,13.53
2019-01-29T04:33:04.943Z,12.97
2019-01-29T04:35:33.905Z,15.90
2019-01-29T04:38:04.511Z,17.50
2019-01-29T04:40:34.163Z,15.17
2019-01-29T04:43:04.353Z,15.20
2019-01-29T04:45:34.400Z,16.77
2019-01-29T04:48:03.446Z,15.87
2019-01-29T04:50:45.287Z,14.70
2019-01-29T04:53:15.591Z,16.80
2019-01-29T04:55:45.751Z,17.27
2019-01-29T04:58:15.917Z,19.03
2019-01-29T05:00:49.999Z,17.23
2019-01-29T05:03:20.622Z,16.33
2019-01-29T05:05:50.661Z,15.87
2019-01-29T05:08:19.953Z,18.97
2019-01-29T05:10:50.325Z,19.93
2019-01-29T05:13:19.644Z,13.57
2019-01-29T05:15:49.380Z,14.00
2019-01-29T05:18:19.071Z,12.67
2019-01-29T05:20:50.553Z,13.13
2019-01-29T05:23:20.406Z,13.33
2019-01-29T05:25:51.027Z,14.27
2019-01-29T05:28:21.028Z,12.97
2019-01-29T05:30:51.465Z,14.50
2019-01-29T05:33:20.991Z,12.03
2019-01-29T05:35:50.716Z,11.60
2019-01-29T05:38:20.373Z,12.03
2019-01-29T05:40:49.560Z,13.53
2019-01-29T05:43:20.033Z,12.90
2019-01-29T05:45:51.506Z,13.67
2019-01-29T05:48:21.108Z,12.27
2019-01-29T05:50:54.050Z,13.50
2019-01-29T05:53:23.773Z,12.93
2019-01-29T05:55:53.515Z,14.80
2019-01-29T05:58:23.005Z,14.33
2019-01-29T06:00:52.463Z,15.87
2019-01-29T06:03:21.471Z,13.87
2019-01-29T06:05:51.011Z,16.67
2019-01-29T06:08:22.367Z,14.57
2019-01-29T06:10:52.394Z,14.20
2019-01-29T06:13:23.360Z,15.93
2019-01-29T06:15:54.283Z,15.37
2019-01-29T06:18:24.412Z,15.30
2019-01-29T06:20:55.678Z,17.77
2019-01-29T06:23:26.152Z,16.27
2019-01-29T06:25:56.531Z,23.17
2019-01-29T06:28:26.589Z,13.23
2019-01-29T06:30:56.079Z,16.87
2019-01-29T06:33:27.361Z,14.20
2019-01-29T06:35:57.171Z,13.43
2019-01-29T06:38:27.424Z,13.83
2019-01-29T06:40:57.093Z,10.27
2019-01-29T06:43:27.198Z,12.73
2019-01-29T06:45:56.558Z,15.60
2019-01-29T06:48:26.731Z,18.40
2019-01-29T06:50:57.743Z,17.33
2019-01-29T06:53:28.791Z,16.93
2019-01-29T06:55:58.947Z,16.13
2019-01-29T06:58:29.919Z,13.77
2019-01-29T07:00:58.948Z,17.10
2019-01-29T07:03:29.266Z,17.10
2019-01-29T07:05:58.521Z,17.50
2019-01-29T07:08:28.756Z,17.57
2019-01-29T07:10:59.966Z,17.90
2019-01-29T07:13:32.545Z,16.63
2019-01-29T07:16:19.045Z,18.00
2019-01-29T07:19:18.871Z,13.57
2019-01-29T07:21:49.031Z,9.47
2019-01-29T07:24:20.704Z,12.00
2019-01-29T07:26:49.830Z,9.50
2019-01-29T07:29:19.794Z,12.23
2019-01-29T07:31:49.273Z,10.13
2019-01-29T07:34:19.836Z,10.50
2019-01-29T07:36:50.998Z,13.17
2019-01-29T07:39:20.852Z,13.03
2019-01-29T07:41:50.853Z,19.70
2019-01-29T07:44:21.918Z,15.97
2019-01-29T07:46:52.223Z,17.57
2019-01-29T07:49:21.847Z,15.00
2019-01-29T07:51:51.128Z,16.23
2019-01-29T07:54:20.187Z,13.43
2019-01-29T07:56:50.169Z,12.70
2019-01-29T07:59:32.369Z,10.93
2019-01-29T08:01:52.326Z,12.20
2019-01-29T08:04:22.712Z,14.73
2019-01-29T08:06:54.898Z,12.77
2019-01-29T08:09:23.954Z,12.83
2019-01-29T08:11:53.767Z,13.90
2019-01-29T08:14:23.911Z,14.80
2019-01-29T08:16:55.575Z,13.57
2019-01-29T08:19:30.054Z,12.73
2019-01-29T08:21:59.771Z,12.07
2019-01-29T08:24:29.621Z,13.80
2019-01-29T08:27:00.046Z,12.63
2019-01-29T08:29:30.754Z,11.33
2019-01-29T08:32:01.316Z,11.60
2019-01-29T08:34:30.894Z,12.23
2019-01-29T08:37:00.411Z,14.33
2019-01-29T08:39:29.809Z,15.17
2019-01-29T08:42:00.304Z,16.60
2019-01-29T08:44:32.701Z,18.77
2019-01-29T08:47:02.176Z,12.47
2019-01-29T08:49:34.336Z,11.80
2019-01-29T08:52:03.663Z,11.70
2019-01-29T08:54:32.658Z,15.97
2019-01-29T08:57:03.481Z,15.20
2019-01-29T08:59:33.041Z,13.47
2019-01-29T09:02:02.718Z,12.60
2019-01-29T09:04:33.298Z,10.80
2019-01-29T09:07:03.963Z,10.50
2019-01-29T09:09:33.028Z,10.47
2019-01-29T09:12:03.980Z,10.03
2019-01-29T09:14:34.068Z,10.47
2019-01-29T09:17:05.059Z,10.63
2019-01-29T09:19:35.046Z,11.70
2019-01-29T09:22:04.710Z,9.57
2019-01-29T09:24:36.303Z,9.60
2019-01-29T09:27:05.909Z,8.43
2019-01-29T09:29:36.473Z,9.47
2019-01-29T09:32:07.503Z,8.93
2019-01-29T09:34:37.886Z,12.97
2019-01-29T09:37:07.631Z,12.60
2019-01-29T09:39:36.841Z,9.80
2019-01-29T09:42:07.588Z,11.20
2019-01-29T09:44:37.791Z,9.40
2019-01-29T09:47:08.475Z,9.23
2019-01-29T09:49:38.063Z,9.93
2019-01-29T09:52:08.417Z,8.70
2019-01-29T09:54:37.532Z,7.50
2019-01-29T09:57:08.550Z,6.63
2019-01-29T09:59:39.459Z,7.83
2019-01-29T10:02:09.275Z,7.70
2019-01-29T10:04:39.641Z,8.20
2019-01-29T10:07:09.570Z,5.90
2019-01-29T10:09:40.107Z,5.20
2019-01-29T10:12:10.220Z,5.13
2019-01-29T10:14:39.823Z,5.67
2019-01-29T10:17:11.991Z,4.47
2019-01-29T10:19:43.739Z,5.50
2019-01-29T10:22:14.759Z,3.60
2019-01-29T10:24:47.232Z,4.43
2019-01-29T10:27:17.719Z,3.40
2019-01-29T10:29:48.874Z,3.93
2019-01-29T10:32:19.640Z,4.10
2019-01-29T10:34:49.945Z,4.10
2019-01-29T10:37:20.017Z,3.70
2019-01-29T10:39:49.597Z,3.10
2019-01-29T10:42:19.902Z,3.60
2019-01-29T10:44:50.079Z,6.37
2019-01-29T10:47:19.525Z,3.90
2019-01-29T10:49:50.892Z,4.50
2019-01-29T10:52:22.220Z,4.40
2019-01-29T10:54:51.776Z,3.90
2019-01-29T10:57:21.193Z,4.10
2019-01-29T10:59:51.864Z,3.23
2019-01-29T11:02:21.703Z,2.50
2019-01-29T11:04:52.104Z,3.20
2019-01-29T11:07:21.827Z,3.40
2019-01-29T11:09:54.766Z,4.80
2019-01-29T11:12:24.530Z,4.00
2019-01-29T11:14:54.561Z,3.57
2019-01-29T11:17:24.342Z,3.97
2019-01-29T11:19:56.271Z,4.07
2019-01-29T11:22:26.051Z,3.57
2019-01-29T11:24:56.810Z,3.53
2019-01-29T11:27:26.343Z,3.17
2019-01-29T11:29:56.363Z,4.73
2019-01-29T11:32:26.505Z,3.17
2019-01-29T11:34:59.044Z,2.80
2019-01-29T11:37:31.231Z,4.30
2019-01-29T11:40:01.515Z,3.80
2019-01-29T11:42:32.186Z,3.70
2019-01-29T11:45:03.497Z,4.43
2019-01-29T11:47:35.119Z,4.87
2019-01-29T11:50:06.073Z,4.40
2019-01-29T11:52:36.576Z,4.30
2019-01-29T11:55:08.533Z,4.23
2019-01-29T11:57:38.772Z,3.40
2019-01-29T12:00:16.047Z,4.87
2019-01-29T12:02:46.172Z,3.03
2019-01-29T12:05:15.902Z,4.00
2019-01-29T12:07:46.452Z,4.93
2019-01-29T12:10:17.355Z,4.47
2019-01-29T12:12:46.786Z,4.30
2019-01-29T12:15:17.535Z,3.60
2019-01-29T12:17:49.919Z,5.53
2019-01-29T12:20:20.310Z,6.67
2019-01-29T12:22:50.571Z,4.73
2019-01-29T12:25:21.003Z,3.60
2019-01-29T12:27:54.850Z,3.50
2019-01-29T12:30:26.366Z,3.00
2019-01-29T12:32:56.558Z,4.63
2019-01-29T12:35:26.858Z,5.60
2019-01-29T12:37:57.483Z,6.50
2019-01-29T12:40:29.663Z,5.90
2019-01-29T12:43:00.534Z,8.50
2019-01-29T12:45:31.450Z,7.00
2019-01-29T12:48:01.462Z,6.30
2019-01-29T12:50:31.993Z,2.30
2019-01-29T12:53:07.827Z,2.50
2019-01-29T12:55:38.291Z,5.13
2019-01-29T12:58:08.216Z,3.97
2019-01-29T13:00:57.858Z,4.13
2019-01-29T13:03:28.484Z,3.40
2019-01-29T13:05:57.747Z,4.40
2019-01-29T13:08:27.305Z,3.60
2019-01-29T13:10:58.030Z,3.10
2019-01-29T13:13:28.491Z,2.97
2019-01-29T13:15:59.288Z,3.67
2019-01-29T13:18:29.630Z,4.23
2019-01-29T13:21:00.465Z,2.90
2019-01-29T13:23:30.913Z,3.40
2019-01-29T13:26:02.836Z,4.20
2019-01-29T13:28:33.847Z,4.00
2019-01-29T13:31:03.167Z,5.03
2019-01-29T13:33:34.146Z,5.47
2019-01-29T13:36:07.718Z,2.80
2019-01-29T13:38:39.740Z,2.67
2019-01-29T13:41:10.848Z,2.93
2019-01-29T13:43:41.209Z,6.43
2019-01-29T13:46:11.982Z,4.23
2019-01-29T13:48:41.868Z,7.60
2019-01-29T13:51:12.879Z,12.13
2019-01-29T13:53:43.924Z,11.13
2019-01-29T13:56:14.096Z,4.60
2019-01-29T13:58:44.307Z,3.20
2019-01-29T14:01:14.256Z,5.10
2019-01-29T14:03:43.452Z,5.33
2019-01-29T14:06:15.110Z,3.17
2019-01-29T14:08:45.523Z,5.00
2019-01-29T14:11:17.252Z,4.20
2019-01-29T14:13:46.672Z,3.63
2019-01-29T14:16:18.595Z,10.67
2019-01-29T14:18:49.997Z,7.87
2019-01-29T14:21:23.443Z,3.70
2019-01-29T14:23:52.766Z,2.40
2019-01-29T14:26:22.121Z,3.30
2019-01-29T14:28:52.552Z,3.70
2019-01-29T14:31:23.565Z,2.90
2019-01-29T14:33:55.797Z,3.70
2019-01-29T14:36:27.044Z,2.60
2019-01-29T14:39:49.553Z,4.27
2019-01-29T14:42:21.473Z,2.50
2019-01-29T14:44:53.649Z,2.30
2019-01-29T14:47:23.301Z,2.90
2019-01-29T14:49:53.039Z,3.27
2019-01-29T14:52:23.130Z,2.73
2019-01-29T14:54:54.475Z,5.30
2019-01-29T14:57:23.460Z,7.37
2019-01-29T14:59:53.997Z,2.43
2019-01-29T15:02:22.929Z,2.80
2019-01-29T15:04:54.465Z,2.30
2019-01-29T15:07:30.559Z,2.87
2019-01-29T15:09:57.823Z,4.27
2019-01-29T15:12:29.017Z,2.80
2019-01-29T15:14:59.755Z,2.20
2019-01-29T15:17:58.245Z,2.13
2019-01-29T15:20:29.743Z,3.43
2019-01-29T15:22:59.621Z,4.60
2019-01-29T15:25:34.403Z,3.93
2019-01-29T15:28:05.737Z,4.60
2019-01-29T15:30:39.084Z,7.30
2019-01-29T15:33:11.672Z,18.53
2019-01-29T15:35:42.476Z,11.33
2019-01-29T15:38:17.272Z,6.67
2019-01-29T15:40:48.558Z,5.40
2019-01-29T15:43:18.559Z,8.70
2019-01-29T15:45:49.821Z,7.90
2019-01-29T15:48:21.863Z,5.50
2019-01-29T15:50:52.534Z,5.00
2019-01-29T15:53:25.930Z,4.50
2019-01-29T15:55:56.147Z,4.00
2019-01-29T15:58:26.937Z,5.83
2019-01-29T16:00:57.813Z,6.13
2019-01-29T16:03:29.157Z,6.37
2019-01-29T16:05:59.696Z,8.03
2019-01-29T16:08:30.005Z,7.10
2019-01-29T16:11:00.919Z,8.83
2019-01-29T16:13:30.849Z,9.53
2019-01-29T16:16:00.606Z,7.17
2019-01-29T16:18:31.127Z,5.03
2019-01-29T16:21:01.681Z,4.37
2019-01-29T16:23:33.839Z,5.00
2019-01-29T16:26:03.689Z,6.27
2019-01-29T16:28:33.591Z,7.23
2019-01-29T16:31:03.880Z,5.93
2019-01-29T16:33:33.791Z,5.33
2019-01-29T16:36:04.206Z,4.97
2019-01-29T16:38:34.228Z,4.90
2019-01-29T16:41:05.043Z,4.33
2019-01-29T16:43:36.433Z,3.93
2019-01-29T16:46:10.649Z,4.23
2019-01-29T16:48:40.821Z,3.10
2019-01-29T16:51:10.768Z,2.00
2019-01-29T16:53:42.175Z,1.80
2019-01-29T16:56:12.681Z,2.33
2019-01-29T16:58:43.121Z,3.30
2019-01-29T17:01:14.478Z,4.20
2019-01-29T17:03:44.299Z,4.23
2019-01-29T17:06:14.696Z,3.60
2019-01-29T17:08:44.566Z,3.57
2019-01-29T17:11:14.660Z,3.77
2019-01-29T17:13:43.596Z,3.73
2019-01-29T17:16:13.700Z,4.63
2019-01-29T17:18:45.330Z,5.30
2019-01-29T17:21:15.183Z,5.33
2019-01-29T17:23:45.513Z,5.80
2019-01-29T17:26:15.299Z,5.10
2019-01-29T17:28:45.721Z,5.17
2019-01-29T17:31:16.893Z,5.97
2019-01-29T17:33:45.795Z,6.20
2019-01-29T17:36:18.860Z,6.10
2019-01-29T17:38:48.849Z,4.20
2019-01-29T17:41:18.250Z,4.00
2019-01-29T17:43:48.108Z,3.70
2019-01-29T17:46:19.597Z,3.87
2019-01-29T17:48:51.539Z,7.03
2019-01-29T17:51:21.663Z,7.13
2019-01-29T17:53:51.095Z,4.87
2019-01-29T17:56:24.381Z,5.07
2019-01-29T17:58:55.529Z,4.07
2019-01-29T18:01:26.557Z,3.30
2019-01-29T18:03:57.010Z,3.90
2019-01-29T18:06:27.843Z,6.43
2019-01-29T18:08:58.730Z,5.90
2019-01-29T18:11:32.292Z,6.77
2019-01-29T18:14:01.813Z,13.13
2019-01-29T18:16:33.554Z,7.67
2019-01-29T18:19:03.341Z,7.43
2019-01-29T18:21:33.622Z,7.50
2019-01-29T18:24:05.606Z,9.43
2019-01-29T18:26:36.821Z,10.50
2019-01-29T18:29:08.764Z,12.83
2019-01-29T18:31:37.918Z,10.93
2019-01-29T18:34:12.938Z,11.13
2019-01-29T18:36:43.319Z,14.40
2019-01-29T18:39:15.354Z,10.30
2019-01-29T18:41:45.018Z,5.63
2019-01-29T18:44:15.033Z,5.37
2019-01-29T18:46:46.523Z,4.83
2019-01-29T18:49:19.053Z,4.40
2019-01-29T18:51:50.298Z,3.90
2019-01-29T18:54:22.523Z,6.80
2019-01-29T18:56:52.726Z,7.27
2019-01-29T18:59:22.875Z,8.17
2019-01-29T19:01:53.880Z,14.17
2019-01-29T19:04:24.460Z,10.90
2019-01-29T19:06:55.404Z,12.67
2019-01-29T19:09:25.450Z,8.30
2019-01-29T19:11:57.851Z,10.30
2019-01-29T19:14:27.978Z,10.23
2019-01-29T19:16:59.968Z,10.50
2019-01-29T19:19:29.281Z,9.30
2019-01-29T19:21:58.479Z,13.40
2019-01-29T19:24:28.166Z,13.97
2019-01-29T19:26:58.523Z,11.80
2019-01-29T19:29:28.319Z,6.90
2019-01-29T19:32:00.291Z,9.90
2019-01-29T19:34:31.872Z,13.60
2019-01-29T19:37:03.312Z,23.33
2019-01-29T19:39:35.021Z,13.97
2019-01-29T19:42:05.945Z,9.13
2019-01-29T19:44:36.421Z,14.23
2019-01-29T19:47:07.088Z,10.57
2019-01-29T19:49:37.933Z,9.40
2019-01-29T19:52:08.646Z,11.90
2019-01-29T19:54:39.499Z,72.30
2019-01-29T19:57:10.799Z,12.63
2019-01-29T19:59:42.378Z,28.67
2019-01-29T20:02:12.373Z,17.37
2019-01-29T20:04:43.602Z,9.40
2019-01-29T20:07:15.334Z,9.00
2019-01-29T20:09:45.032Z,9.37
2019-01-29T20:12:16.012Z,8.97
2019-01-29T20:14:46.911Z,12.10
2019-01-29T20:17:17.752Z,11.37
2019-01-29T20:19:49.887Z,13.03
2019-01-29T20:22:24.441Z,22.23
2019-01-29T20:24:54.873Z,17.93
2019-01-29T20:27:26.799Z,13.80
2019-01-29T20:29:57.522Z,13.13
2019-01-29T20:32:31.156Z,11.83
2019-01-29T20:35:01.744Z,10.50
2019-01-29T20:37:32.955Z,14.20
2019-01-29T20:40:03.681Z,14.07
2019-01-29T20:42:34.710Z,12.23
2019-01-29T20:45:08.128Z,12.60
2019-01-29T20:47:39.204Z,12.50
2019-01-29T20:50:15.146Z,13.90
2019-01-29T20:52:45.541Z,13.27
2019-01-29T20:55:18.119Z,13.07
2019-01-29T20:57:48.608Z,16.30
2019-01-29T21:00:29.194Z,16.20
2019-01-29T21:02:59.599Z,16.07
2019-01-29T21:05:31.680Z,15.63
2019-01-29T21:08:02.834Z,18.50
2019-01-29T21:10:36.284Z,19.40
2019-01-29T21:13:07.357Z,27.80
2019-01-29T21:15:38.737Z,28.33
2019-01-29T21:18:10.473Z,17.27
2019-01-29T21:20:43.758Z,17.50
2019-01-29T21:23:15.205Z,16.30
2019-01-29T21:25:44.682Z,19.73
2019-01-29T21:28:16.996Z,17.57
2019-01-29T21:30:49.961Z,24.77
2019-01-29T21:33:22.212Z,32.57
2019-01-29T21:35:51.693Z,26.30
2019-01-29T21:38:22.179Z,17.60
2019-01-29T21:40:55.072Z,16.87
2019-01-29T21:43:25.106Z,17.37
2019-01-29T21:45:55.530Z,17.70
2019-01-29T21:48:25.441Z,15.77
2019-01-29T21:50:57.750Z,22.03
2019-01-29T21:53:28.552Z,20.23
2019-01-29T21:56:02.707Z,24.33
2019-01-29T21:58:35.253Z,20.43
2019-01-29T22:01:06.037Z,21.30
2019-01-29T22:03:39.390Z,15.03
2019-01-29T22:06:09.540Z,16.63
2019-01-29T22:08:39.856Z,24.43
2019-01-29T22:11:13.461Z,19.27
2019-01-29T22:13:43.810Z,13.97
2019-01-29T22:16:15.031Z,14.33
2019-01-29T22:18:47.412Z,14.50
2019-01-29T22:21:19.416Z,15.67
2019-01-29T22:23:49.317Z,15.20
2019-01-29T22:26:19.184Z,15.80
2019-01-29T22:28:49.472Z,16.33
2019-01-29T22:31:19.580Z,14.33
2019-01-29T22:33:52.299Z,15.93
2019-01-29T22:36:23.378Z,16.37
2019-01-29T22:38:54.921Z,15.53
2019-01-29T22:41:26.576Z,20.87
2019-01-29T22:43:57.173Z,17.70
2019-01-29T22:46:27.465Z,20.37
2019-01-29T22:48:57.503Z,18.03
2019-01-29T22:51:29.336Z,16.00
2019-01-29T22:54:00.779Z,15.40
2019-01-29T22:56:32.234Z,15.67
2019-01-29T22:59:02.253Z,14.87
2019-01-29T23:01:43.726Z,17.00
2019-01-29T23:04:30.124Z,15.67
2019-01-29T23:07:28.890Z,13.27
2019-01-29T23:10:15.896Z,14.37
2019-01-29T23:12:47.430Z,16.53
2019-01-29T23:15:20.114Z,15.57
2019-01-29T23:17:50.023Z,14.07
2019-01-29T23:20:20.326Z,15.63
2019-01-29T23:22:49.396Z,14.30
2019-01-29T23:25:19.035Z,16.27
2019-01-29T23:27:48.996Z,14.27
2019-01-29T23:30:19.020Z,16.93
2019-01-29T23:32:49.396Z,13.47
2019-01-29T23:35:20.056Z,11.60
2019-01-29T23:37:50.056Z,11.30
2019-01-29T23:40:19.797Z,10.70
2019-01-29T23:42:49.666Z,10.93
2019-01-29T23:45:20.109Z,10.40
2019-01-29T23:47:59.907Z,10.57
2019-01-29T23:50:31.345Z,10.47
2019-01-29T23:53:02.804Z,10.40
2019-01-29T23:55:32.705Z,10.70
2019-01-29T23:58:02.310Z,10.43
